sensor_id;sensor_type;location;lat;lon;timestamp;temperature;humidity
13960;DHT22;7052;51.050;3.716;2022-12-18T00:01:00;-2.60;99.90
13960;DHT22;7052;51.050;3.716;2022-12-18T00:03:31;-2.60;99.90
13960;DHT22;7052;51.050;3.716;2022-12-18T00:05:59;-2.60;99.90
13960;DHT22;7052;51.050;3.716;2022-12-18T00:08:29;-2.60;99.90
13960;DHT22;7052;51.050;3.716;2022-12-18T00:11:03;-2.60;99.90
13960;DHT22;7052;51.050;3.716;2022-12-18T00:13:32;-2.70;99.90
13960;DHT22;7052;51.050;3.716;2022-12-18T00:16:02;-2.70;99.90
13960;DHT22;7052;51.050;3.716;2022-12-18T00:18:29;-2.70;99.90
13960;DHT22;7052;51.050;3.716;2022-12-18T00:20:58;-2.80;99.90
13960;DHT22;7052;51.050;3.716;2022-12-18T00:23:26;-2.80;99.90
13960;DHT22;7052;51.050;3.716;2022-12-18T00:25:53;-2.80;99.90
13960;DHT22;7052;51.050;3.716;2022-12-18T00:28:21;-2.90;99.90
13960;DHT22;7052;51.050;3.716;2022-12-18T00:30:48;-2.90;99.90
13960;DHT22;7052;51.050;3.716;2022-12-18T00:33:17;-2.90;99.90
13960;DHT22;7052;51.050;3.716;2022-12-18T00:35:45;-3.00;99.90
13960;DHT22;7052;51.050;3.716;2022-12-18T00:38:12;-3.00;99.90
13960;DHT22;7052;51.050;3.716;2022-12-18T00:40:39;-3.00;99.90
13960;DHT22;7052;51.050;3.716;2022-12-18T00:43:06;-3.10;99.90
13960;DHT22;7052;51.050;3.716;2022-12-18T00:45:34;-3.10;99.90
13960;DHT22;7052;51.050;3.716;2022-12-18T00:48:02;-3.10;99.90
13960;DHT22;7052;51.050;3.716;2022-12-18T00:50:28;-3.10;99.90
13960;DHT22;7052;51.050;3.716;2022-12-18T00:52:56;-3.10;99.90
13960;DHT22;7052;51.050;3.716;2022-12-18T00:55:23;-3.20;99.90
13960;DHT22;7052;51.050;3.716;2022-12-18T00:57:51;-3.20;99.90
13960;DHT22;7052;51.050;3.716;2022-12-18T01:00:19;-3.10;99.90
13960;DHT22;7052;51.050;3.716;2022-12-18T01:02:49;-3.10;99.90
13960;DHT22;7052;51.050;3.716;2022-12-18T01:05:17;-3.10;99.90
13960;DHT22;7052;51.050;3.716;2022-12-18T01:07:44;-3.10;99.90
13960;DHT22;7052;51.050;3.716;2022-12-18T01:10:12;-3.10;99.90
13960;DHT22;7052;51.050;3.716;2022-12-18T01:12:40;-3.10;99.90
13960;DHT22;7052;51.050;3.716;2022-12-18T01:15:10;-3.10;99.90
13960;DHT22;7052;51.050;3.716;2022-12-18T01:17:41;-3.10;99.90
13960;DHT22;7052;51.050;3.716;2022-12-18T01:20:11;-3.20;99.90
13960;DHT22;7052;51.050;3.716;2022-12-18T01:22:39;-3.20;99.90
13960;DHT22;7052;51.050;3.716;2022-12-18T01:25:07;-3.20;99.90
13960;DHT22;7052;51.050;3.716;2022-12-18T01:27:34;-3.20;99.90
13960;DHT22;7052;51.050;3.716;2022-12-18T01:30:02;-3.20;99.90
13960;DHT22;7052;51.050;3.716;2022-12-18T01:32:29;-3.20;99.90
13960;DHT22;7052;51.050;3.716;2022-12-18T01:34:57;-3.30;99.90
13960;DHT22;7052;51.050;3.716;2022-12-18T01:37:26;-3.30;99.90
13960;DHT22;7052;51.050;3.716;2022-12-18T01:39:53;-3.30;99.90
13960;DHT22;7052;51.050;3.716;2022-12-18T01:42:22;-3.30;99.90
13960;DHT22;7052;51.050;3.716;2022-12-18T01:44:58;-3.40;99.90
13960;DHT22;7052;51.050;3.716;2022-12-18T01:47:29;-3.40;99.90
13960;DHT22;7052;51.050;3.716;2022-12-18T01:49:58;-3.50;99.90
13960;DHT22;7052;51.050;3.716;2022-12-18T01:52:30;-3.50;99.90
13960;DHT22;7052;51.050;3.716;2022-12-18T01:54:57;-3.50;99.90
13960;DHT22;7052;51.050;3.716;2022-12-18T01:57:26;-3.60;99.90
13960;DHT22;7052;51.050;3.716;2022-12-18T01:59:59;-3.60;99.90
13960;DHT22;7052;51.050;3.716;2022-12-18T02:02:26;-3.60;99.90
13960;DHT22;7052;51.050;3.716;2022-12-18T02:04:54;-3.60;99.90
13960;DHT22;7052;51.050;3.716;2022-12-18T02:07:25;-3.60;99.90
13960;DHT22;7052;51.050;3.716;2022-12-18T02:10:02;-3.60;99.90
13960;DHT22;7052;51.050;3.716;2022-12-18T02:12:35;-3.60;99.90
13960;DHT22;7052;51.050;3.716;2022-12-18T02:15:13;-3.60;99.90
13960;DHT22;7052;51.050;3.716;2022-12-18T02:17:50;-3.70;99.90
13960;DHT22;7052;51.050;3.716;2022-12-18T02:20:24;-3.70;99.90
13960;DHT22;7052;51.050;3.716;2022-12-18T02:23:04;-3.70;99.90
13960;DHT22;7052;51.050;3.716;2022-12-18T02:28:41;-3.60;99.90
13960;DHT22;7052;51.050;3.716;2022-12-18T02:31:13;-3.60;99.90
13960;DHT22;7052;51.050;3.716;2022-12-18T02:33:43;-3.60;99.90
13960;DHT22;7052;51.050;3.716;2022-12-18T02:36:12;-3.60;99.90
13960;DHT22;7052;51.050;3.716;2022-12-18T02:38:42;-3.60;99.90
13960;DHT22;7052;51.050;3.716;2022-12-18T02:41:10;-3.60;99.90
13960;DHT22;7052;51.050;3.716;2022-12-18T02:43:40;-3.60;99.90
13960;DHT22;7052;51.050;3.716;2022-12-18T02:46:30;-3.70;99.90
13960;DHT22;7052;51.050;3.716;2022-12-18T02:49:04;-3.70;99.90
13960;DHT22;7052;51.050;3.716;2022-12-18T02:51:39;-3.70;99.90
13960;DHT22;7052;51.050;3.716;2022-12-18T02:54:13;-3.80;99.90
13960;DHT22;7052;51.050;3.716;2022-12-18T02:56:47;-3.80;99.90
13960;DHT22;7052;51.050;3.716;2022-12-18T02:59:21;-3.80;99.90
13960;DHT22;7052;51.050;3.716;2022-12-18T03:01:54;-3.90;99.90
13960;DHT22;7052;51.050;3.716;2022-12-18T03:04:26;-3.90;99.90
13960;DHT22;7052;51.050;3.716;2022-12-18T03:06:58;-3.90;99.90
13960;DHT22;7052;51.050;3.716;2022-12-18T03:09:29;-3.90;99.90
13960;DHT22;7052;51.050;3.716;2022-12-18T03:12:04;-4.00;99.90
13960;DHT22;7052;51.050;3.716;2022-12-18T03:14:54;-4.00;99.90
13960;DHT22;7052;51.050;3.716;2022-12-18T03:17:27;-4.00;99.90
13960;DHT22;7052;51.050;3.716;2022-12-18T03:19:59;-4.00;99.90
13960;DHT22;7052;51.050;3.716;2022-12-18T03:22:32;-4.00;99.90
13960;DHT22;7052;51.050;3.716;2022-12-18T03:25:01;-4.00;99.90
13960;DHT22;7052;51.050;3.716;2022-12-18T03:27:33;-4.00;99.90
13960;DHT22;7052;51.050;3.716;2022-12-18T03:30:05;-3.90;99.90
13960;DHT22;7052;51.050;3.716;2022-12-18T03:32:39;-3.90;99.90
13960;DHT22;7052;51.050;3.716;2022-12-18T03:35:11;-3.90;99.90
13960;DHT22;7052;51.050;3.716;2022-12-18T03:37:40;-3.90;99.90
13960;DHT22;7052;51.050;3.716;2022-12-18T03:40:09;-3.90;99.90
13960;DHT22;7052;51.050;3.716;2022-12-18T03:42:42;-3.90;99.90
13960;DHT22;7052;51.050;3.716;2022-12-18T03:45:20;-3.90;99.90
13960;DHT22;7052;51.050;3.716;2022-12-18T03:47:58;-4.00;99.90
13960;DHT22;7052;51.050;3.716;2022-12-18T03:50:33;-4.00;99.90
13960;DHT22;7052;51.050;3.716;2022-12-18T03:53:10;-4.00;99.90
13960;DHT22;7052;51.050;3.716;2022-12-18T03:55:42;-4.00;99.90
13960;DHT22;7052;51.050;3.716;2022-12-18T03:58:13;-4.00;99.90
13960;DHT22;7052;51.050;3.716;2022-12-18T04:00:44;-4.00;99.90
13960;DHT22;7052;51.050;3.716;2022-12-18T04:03:13;-4.00;99.90
13960;DHT22;7052;51.050;3.716;2022-12-18T04:05:43;-4.00;99.90
13960;DHT22;7052;51.050;3.716;2022-12-18T04:08:10;-4.00;99.90
13960;DHT22;7052;51.050;3.716;2022-12-18T04:10:39;-4.00;99.90
13960;DHT22;7052;51.050;3.716;2022-12-18T04:13:06;-4.00;99.90
13960;DHT22;7052;51.050;3.716;2022-12-18T04:15:35;-4.00;99.90
13960;DHT22;7052;51.050;3.716;2022-12-18T04:18:06;-4.00;99.90
13960;DHT22;7052;51.050;3.716;2022-12-18T04:20:33;-4.00;99.90
13960;DHT22;7052;51.050;3.716;2022-12-18T04:23:01;-4.00;99.90
13960;DHT22;7052;51.050;3.716;2022-12-18T04:25:28;-4.00;99.90
13960;DHT22;7052;51.050;3.716;2022-12-18T04:27:55;-4.10;99.90
13960;DHT22;7052;51.050;3.716;2022-12-18T04:30:24;-4.10;99.90
13960;DHT22;7052;51.050;3.716;2022-12-18T04:32:53;-4.10;99.90
13960;DHT22;7052;51.050;3.716;2022-12-18T04:35:22;-4.10;99.90
13960;DHT22;7052;51.050;3.716;2022-12-18T04:37:48;-4.20;99.90
13960;DHT22;7052;51.050;3.716;2022-12-18T04:40:16;-4.20;99.90
13960;DHT22;7052;51.050;3.716;2022-12-18T04:42:44;-4.20;99.90
13960;DHT22;7052;51.050;3.716;2022-12-18T04:45:11;-4.20;99.90
13960;DHT22;7052;51.050;3.716;2022-12-18T04:47:38;-4.20;99.90
13960;DHT22;7052;51.050;3.716;2022-12-18T04:50:07;-4.30;99.90
13960;DHT22;7052;51.050;3.716;2022-12-18T04:52:35;-4.30;99.90
13960;DHT22;7052;51.050;3.716;2022-12-18T04:55:02;-4.30;99.90
13960;DHT22;7052;51.050;3.716;2022-12-18T04:57:29;-4.30;99.90
13960;DHT22;7052;51.050;3.716;2022-12-18T04:59:56;-4.30;99.90
13960;DHT22;7052;51.050;3.716;2022-12-18T05:02:23;-4.30;99.90
13960;DHT22;7052;51.050;3.716;2022-12-18T05:04:50;-4.30;99.90
13960;DHT22;7052;51.050;3.716;2022-12-18T05:07:17;-4.30;99.90
13960;DHT22;7052;51.050;3.716;2022-12-18T05:09:46;-4.30;99.90
13960;DHT22;7052;51.050;3.716;2022-12-18T05:12:13;-4.30;99.90
13960;DHT22;7052;51.050;3.716;2022-12-18T05:14:42;-4.30;99.90
13960;DHT22;7052;51.050;3.716;2022-12-18T05:17:09;-4.30;99.90
13960;DHT22;7052;51.050;3.716;2022-12-18T05:19:37;-4.30;99.90
13960;DHT22;7052;51.050;3.716;2022-12-18T05:22:07;-4.30;99.90
13960;DHT22;7052;51.050;3.716;2022-12-18T05:24:35;-4.20;99.90
13960;DHT22;7052;51.050;3.716;2022-12-18T05:27:05;-4.20;99.90
13960;DHT22;7052;51.050;3.716;2022-12-18T05:29:34;-4.20;99.90
13960;DHT22;7052;51.050;3.716;2022-12-18T05:32:01;-4.20;99.90
13960;DHT22;7052;51.050;3.716;2022-12-18T05:34:28;-4.20;99.90
13960;DHT22;7052;51.050;3.716;2022-12-18T05:36:56;-4.20;99.90
13960;DHT22;7052;51.050;3.716;2022-12-18T05:39:23;-4.20;99.90
13960;DHT22;7052;51.050;3.716;2022-12-18T05:41:51;-4.20;99.90
13960;DHT22;7052;51.050;3.716;2022-12-18T05:44:20;-4.20;99.90
13960;DHT22;7052;51.050;3.716;2022-12-18T05:46:47;-4.20;99.90
13960;DHT22;7052;51.050;3.716;2022-12-18T05:49:13;-4.20;99.90
13960;DHT22;7052;51.050;3.716;2022-12-18T05:51:41;-4.20;99.90
13960;DHT22;7052;51.050;3.716;2022-12-18T05:54:07;-4.20;99.90
13960;DHT22;7052;51.050;3.716;2022-12-18T05:56:34;-4.20;99.90
13960;DHT22;7052;51.050;3.716;2022-12-18T05:59:02;-4.20;99.90
13960;DHT22;7052;51.050;3.716;2022-12-18T06:01:31;-4.20;99.90
13960;DHT22;7052;51.050;3.716;2022-12-18T06:04:00;-4.20;99.90
13960;DHT22;7052;51.050;3.716;2022-12-18T06:06:30;-4.20;99.90
13960;DHT22;7052;51.050;3.716;2022-12-18T06:08:57;-4.10;99.90
13960;DHT22;7052;51.050;3.716;2022-12-18T06:11:25;-4.10;99.90
13960;DHT22;7052;51.050;3.716;2022-12-18T06:13:54;-4.10;99.90
13960;DHT22;7052;51.050;3.716;2022-12-18T06:16:22;-4.10;99.90
13960;DHT22;7052;51.050;3.716;2022-12-18T06:18:51;-4.10;99.90
13960;DHT22;7052;51.050;3.716;2022-12-18T06:21:18;-4.10;99.90
13960;DHT22;7052;51.050;3.716;2022-12-18T06:23:45;-4.10;99.90
13960;DHT22;7052;51.050;3.716;2022-12-18T06:26:13;-4.10;99.90
13960;DHT22;7052;51.050;3.716;2022-12-18T06:28:41;-4.10;99.90
13960;DHT22;7052;51.050;3.716;2022-12-18T06:31:08;-4.10;99.90
13960;DHT22;7052;51.050;3.716;2022-12-18T06:33:38;-4.10;99.90
13960;DHT22;7052;51.050;3.716;2022-12-18T06:36:12;-4.10;99.90
13960;DHT22;7052;51.050;3.716;2022-12-18T06:38:41;-4.10;99.90
13960;DHT22;7052;51.050;3.716;2022-12-18T06:41:10;-4.10;99.90
13960;DHT22;7052;51.050;3.716;2022-12-18T06:43:39;-4.10;99.90
13960;DHT22;7052;51.050;3.716;2022-12-18T06:46:08;-4.10;99.90
13960;DHT22;7052;51.050;3.716;2022-12-18T06:48:34;-4.10;99.90
13960;DHT22;7052;51.050;3.716;2022-12-18T06:51:02;-4.00;99.90
13960;DHT22;7052;51.050;3.716;2022-12-18T06:53:33;-4.00;99.90
13960;DHT22;7052;51.050;3.716;2022-12-18T06:56:06;-4.00;99.90
13960;DHT22;7052;51.050;3.716;2022-12-18T06:58:33;-4.10;99.90
13960;DHT22;7052;51.050;3.716;2022-12-18T07:01:06;-4.10;99.90
13960;DHT22;7052;51.050;3.716;2022-12-18T07:03:33;-4.10;99.90
13960;DHT22;7052;51.050;3.716;2022-12-18T07:06:02;-4.10;99.90
13960;DHT22;7052;51.050;3.716;2022-12-18T07:08:31;-4.10;99.90
13960;DHT22;7052;51.050;3.716;2022-12-18T07:10:59;-4.10;99.90
13960;DHT22;7052;51.050;3.716;2022-12-18T07:13:26;-4.10;99.90
13960;DHT22;7052;51.050;3.716;2022-12-18T07:15:53;-4.10;99.90
13960;DHT22;7052;51.050;3.716;2022-12-18T07:18:20;-4.10;99.90
13960;DHT22;7052;51.050;3.716;2022-12-18T07:20:47;-4.10;99.90
13960;DHT22;7052;51.050;3.716;2022-12-18T07:23:14;-4.20;99.90
13960;DHT22;7052;51.050;3.716;2022-12-18T07:25:42;-4.20;99.90
13960;DHT22;7052;51.050;3.716;2022-12-18T07:28:09;-4.10;99.90
13960;DHT22;7052;51.050;3.716;2022-12-18T07:30:41;-4.10;99.90
13960;DHT22;7052;51.050;3.716;2022-12-18T07:33:10;-4.10;99.90
13960;DHT22;7052;51.050;3.716;2022-12-18T07:35:38;-4.10;99.90
13960;DHT22;7052;51.050;3.716;2022-12-18T07:38:05;-4.20;99.90
13960;DHT22;7052;51.050;3.716;2022-12-18T07:40:32;-4.20;99.90
13960;DHT22;7052;51.050;3.716;2022-12-18T07:43:02;-4.20;99.90
13960;DHT22;7052;51.050;3.716;2022-12-18T07:45:30;-4.20;99.90
13960;DHT22;7052;51.050;3.716;2022-12-18T07:47:57;-4.20;99.90
13960;DHT22;7052;51.050;3.716;2022-12-18T07:50:27;-4.20;99.90
13960;DHT22;7052;51.050;3.716;2022-12-18T07:52:54;-4.20;99.90
13960;DHT22;7052;51.050;3.716;2022-12-18T07:55:21;-4.20;99.90
13960;DHT22;7052;51.050;3.716;2022-12-18T07:57:48;-4.20;99.90
13960;DHT22;7052;51.050;3.716;2022-12-18T08:00:18;-4.20;99.90
13960;DHT22;7052;51.050;3.716;2022-12-18T08:02:45;-4.20;99.90
13960;DHT22;7052;51.050;3.716;2022-12-18T08:05:12;-4.20;99.90
13960;DHT22;7052;51.050;3.716;2022-12-18T08:07:40;-4.20;99.90
13960;DHT22;7052;51.050;3.716;2022-12-18T08:10:08;-4.20;99.90
13960;DHT22;7052;51.050;3.716;2022-12-18T08:12:35;-4.10;99.90
13960;DHT22;7052;51.050;3.716;2022-12-18T08:15:02;-4.10;99.90
13960;DHT22;7052;51.050;3.716;2022-12-18T08:17:30;-4.00;99.90
13960;DHT22;7052;51.050;3.716;2022-12-18T08:19:57;-4.00;99.90
13960;DHT22;7052;51.050;3.716;2022-12-18T08:22:24;-4.00;99.90
13960;DHT22;7052;51.050;3.716;2022-12-18T08:24:52;-3.90;99.90
13960;DHT22;7052;51.050;3.716;2022-12-18T08:27:21;-3.90;99.90
13960;DHT22;7052;51.050;3.716;2022-12-18T08:29:51;-3.80;99.90
13960;DHT22;7052;51.050;3.716;2022-12-18T08:32:19;-3.70;99.90
13960;DHT22;7052;51.050;3.716;2022-12-18T08:34:52;-3.60;99.90
13960;DHT22;7052;51.050;3.716;2022-12-18T08:37:18;-3.50;99.90
13960;DHT22;7052;51.050;3.716;2022-12-18T08:39:47;-3.50;99.90
13960;DHT22;7052;51.050;3.716;2022-12-18T08:42:14;-3.50;99.90
13960;DHT22;7052;51.050;3.716;2022-12-18T08:44:58;-3.40;99.90
13960;DHT22;7052;51.050;3.716;2022-12-18T08:47:25;-3.30;99.90
13960;DHT22;7052;51.050;3.716;2022-12-18T08:49:55;-3.30;99.90
13960;DHT22;7052;51.050;3.716;2022-12-18T08:52:22;-3.30;99.90
13960;DHT22;7052;51.050;3.716;2022-12-18T08:54:49;-3.20;99.90
13960;DHT22;7052;51.050;3.716;2022-12-18T08:57:15;-3.20;99.90
13960;DHT22;7052;51.050;3.716;2022-12-18T08:59:42;-3.10;99.90
13960;DHT22;7052;51.050;3.716;2022-12-18T09:02:10;-3.10;99.90
13960;DHT22;7052;51.050;3.716;2022-12-18T09:04:37;-3.10;99.90
13960;DHT22;7052;51.050;3.716;2022-12-18T09:07:06;-3.10;99.90
13960;DHT22;7052;51.050;3.716;2022-12-18T09:09:34;-3.00;99.90
13960;DHT22;7052;51.050;3.716;2022-12-18T09:12:02;-3.00;99.90
13960;DHT22;7052;51.050;3.716;2022-12-18T09:14:29;-3.00;99.90
13960;DHT22;7052;51.050;3.716;2022-12-18T09:16:57;-2.90;99.90
13960;DHT22;7052;51.050;3.716;2022-12-18T09:19:25;-2.90;99.90
13960;DHT22;7052;51.050;3.716;2022-12-18T09:21:52;-2.90;99.90
13960;DHT22;7052;51.050;3.716;2022-12-18T09:24:21;-2.80;99.90
13960;DHT22;7052;51.050;3.716;2022-12-18T09:26:48;-2.80;99.90
13960;DHT22;7052;51.050;3.716;2022-12-18T09:29:15;-2.70;99.90
13960;DHT22;7052;51.050;3.716;2022-12-18T09:31:44;-2.70;99.90
13960;DHT22;7052;51.050;3.716;2022-12-18T09:34:11;-2.70;99.90
13960;DHT22;7052;51.050;3.716;2022-12-18T09:36:38;-2.60;99.90
13960;DHT22;7052;51.050;3.716;2022-12-18T09:39:17;-2.60;99.90
13960;DHT22;7052;51.050;3.716;2022-12-18T09:41:47;-2.50;99.90
13960;DHT22;7052;51.050;3.716;2022-12-18T09:44:23;-2.50;99.90
13960;DHT22;7052;51.050;3.716;2022-12-18T09:47:02;-2.40;99.90
13960;DHT22;7052;51.050;3.716;2022-12-18T09:49:32;-2.20;99.90
13960;DHT22;7052;51.050;3.716;2022-12-18T09:52:05;-2.10;99.90
13960;DHT22;7052;51.050;3.716;2022-12-18T09:54:38;-2.00;99.90
13960;DHT22;7052;51.050;3.716;2022-12-18T09:57:12;-1.90;99.90
13960;DHT22;7052;51.050;3.716;2022-12-18T09:59:41;-1.90;99.90
13960;DHT22;7052;51.050;3.716;2022-12-18T10:02:17;-1.80;99.90
13960;DHT22;7052;51.050;3.716;2022-12-18T10:04:52;-1.80;99.90
13960;DHT22;7052;51.050;3.716;2022-12-18T10:07:26;-1.70;99.90
13960;DHT22;7052;51.050;3.716;2022-12-18T10:10:01;-1.70;99.90
13960;DHT22;7052;51.050;3.716;2022-12-18T10:12:43;-1.60;99.90
13960;DHT22;7052;51.050;3.716;2022-12-18T10:15:18;-1.70;99.90
13960;DHT22;7052;51.050;3.716;2022-12-18T10:17:51;-1.70;99.90
13960;DHT22;7052;51.050;3.716;2022-12-18T10:20:25;-1.70;99.90
13960;DHT22;7052;51.050;3.716;2022-12-18T10:23:15;-1.60;99.90
13960;DHT22;7052;51.050;3.716;2022-12-18T10:25:51;-1.50;99.90
13960;DHT22;7052;51.050;3.716;2022-12-18T10:28:23;-1.40;99.90
13960;DHT22;7052;51.050;3.716;2022-12-18T10:30:51;-1.40;99.90
13960;DHT22;7052;51.050;3.716;2022-12-18T10:33:19;-1.50;99.90
13960;DHT22;7052;51.050;3.716;2022-12-18T10:35:51;-1.50;99.90
13960;DHT22;7052;51.050;3.716;2022-12-18T10:38:22;-1.50;99.90
13960;DHT22;7052;51.050;3.716;2022-12-18T10:40:51;-1.40;99.90
13960;DHT22;7052;51.050;3.716;2022-12-18T10:43:24;-1.40;99.90
13960;DHT22;7052;51.050;3.716;2022-12-18T10:46:03;-1.40;99.90
13960;DHT22;7052;51.050;3.716;2022-12-18T10:48:34;-1.40;99.90
13960;DHT22;7052;51.050;3.716;2022-12-18T10:51:03;-1.40;99.90
13960;DHT22;7052;51.050;3.716;2022-12-18T10:53:33;-1.30;99.90
13960;DHT22;7052;51.050;3.716;2022-12-18T10:56:03;-1.20;99.90
13960;DHT22;7052;51.050;3.716;2022-12-18T10:58:35;-1.10;99.90
13960;DHT22;7052;51.050;3.716;2022-12-18T11:01:10;-1.10;99.90
13960;DHT22;7052;51.050;3.716;2022-12-18T11:03:40;-1.00;99.90
13960;DHT22;7052;51.050;3.716;2022-12-18T11:06:09;-0.90;99.90
13960;DHT22;7052;51.050;3.716;2022-12-18T11:08:41;-0.90;99.90
13960;DHT22;7052;51.050;3.716;2022-12-18T11:11:19;-1.00;99.90
13960;DHT22;7052;51.050;3.716;2022-12-18T11:13:58;-1.00;99.90
13960;DHT22;7052;51.050;3.716;2022-12-18T11:16:30;-1.00;99.90
13960;DHT22;7052;51.050;3.716;2022-12-18T11:19:19;-1.00;99.90
13960;DHT22;7052;51.050;3.716;2022-12-18T11:21:48;-0.90;99.90
13960;DHT22;7052;51.050;3.716;2022-12-18T11:24:21;-0.90;99.90
13960;DHT22;7052;51.050;3.716;2022-12-18T11:26:49;-0.90;99.90
13960;DHT22;7052;51.050;3.716;2022-12-18T11:29:31;-0.90;99.90
13960;DHT22;7052;51.050;3.716;2022-12-18T11:35:14;-0.80;99.90
13960;DHT22;7052;51.050;3.716;2022-12-18T11:37:53;-0.80;99.90
13960;DHT22;7052;51.050;3.716;2022-12-18T11:40:27;-0.70;99.90
13960;DHT22;7052;51.050;3.716;2022-12-18T11:43:01;-0.70;99.90
13960;DHT22;7052;51.050;3.716;2022-12-18T11:45:35;-0.70;99.90
13960;DHT22;7052;51.050;3.716;2022-12-18T11:48:14;-0.60;99.90
13960;DHT22;7052;51.050;3.716;2022-12-18T11:50:49;-0.50;99.90
13960;DHT22;7052;51.050;3.716;2022-12-18T11:53:17;-0.50;99.90
13960;DHT22;7052;51.050;3.716;2022-12-18T11:55:58;-0.50;99.90
13960;DHT22;7052;51.050;3.716;2022-12-18T11:58:47;-0.40;99.90
13960;DHT22;7052;51.050;3.716;2022-12-18T12:01:33;-0.40;99.90
13960;DHT22;7052;51.050;3.716;2022-12-18T12:07:41;-0.30;99.90
13960;DHT22;7052;51.050;3.716;2022-12-18T12:10:24;-0.30;99.90
13960;DHT22;7052;51.050;3.716;2022-12-18T12:13:07;-0.20;99.90
13960;DHT22;7052;51.050;3.716;2022-12-18T12:15:43;-0.20;99.90
13960;DHT22;7052;51.050;3.716;2022-12-18T12:18:21;-0.20;99.90
13960;DHT22;7052;51.050;3.716;2022-12-18T12:21:02;-0.20;99.90
13960;DHT22;7052;51.050;3.716;2022-12-18T12:23:38;-0.10;99.90
13960;DHT22;7052;51.050;3.716;2022-12-18T12:26:14;-0.10;99.90
13960;DHT22;7052;51.050;3.716;2022-12-18T12:28:56;-0.10;99.90
13960;DHT22;7052;51.050;3.716;2022-12-18T12:31:48;-0.10;99.90
13960;DHT22;7052;51.050;3.716;2022-12-18T12:34:26;-0.10;99.90
13960;DHT22;7052;51.050;3.716;2022-12-18T12:37:08;0.00;99.90
13960;DHT22;7052;51.050;3.716;2022-12-18T12:39:41;0.00;99.90
13960;DHT22;7052;51.050;3.716;2022-12-18T12:42:23;0.10;99.90
13960;DHT22;7052;51.050;3.716;2022-12-18T12:45:19;0.10;99.90
13960;DHT22;7052;51.050;3.716;2022-12-18T12:47:50;0.20;99.90
13960;DHT22;7052;51.050;3.716;2022-12-18T12:50:20;0.20;99.90
13960;DHT22;7052;51.050;3.716;2022-12-18T12:52:56;0.30;99.90
13960;DHT22;7052;51.050;3.716;2022-12-18T12:55:26;0.30;99.90
13960;DHT22;7052;51.050;3.716;2022-12-18T12:58:02;0.20;99.90
13960;DHT22;7052;51.050;3.716;2022-12-18T13:00:44;0.30;99.90
13960;DHT22;7052;51.050;3.716;2022-12-18T13:03:15;0.30;99.90
13960;DHT22;7052;51.050;3.716;2022-12-18T13:05:51;0.30;99.90
13960;DHT22;7052;51.050;3.716;2022-12-18T13:08:27;0.30;99.90
13960;DHT22;7052;51.050;3.716;2022-12-18T13:10:55;0.30;99.90
13960;DHT22;7052;51.050;3.716;2022-12-18T13:13:56;0.40;99.90
13960;DHT22;7052;51.050;3.716;2022-12-18T13:16:24;0.40;99.90
13960;DHT22;7052;51.050;3.716;2022-12-18T13:18:56;0.40;99.90
13960;DHT22;7052;51.050;3.716;2022-12-18T13:21:29;0.40;99.90
13960;DHT22;7052;51.050;3.716;2022-12-18T13:24:15;0.30;99.90
13960;DHT22;7052;51.050;3.716;2022-12-18T13:26:46;0.30;99.90
13960;DHT22;7052;51.050;3.716;2022-12-18T13:29:40;0.30;99.90
13960;DHT22;7052;51.050;3.716;2022-12-18T13:32:21;0.30;99.90
13960;DHT22;7052;51.050;3.716;2022-12-18T13:34:49;0.30;99.90
13960;DHT22;7052;51.050;3.716;2022-12-18T13:37:42;0.30;99.90
13960;DHT22;7052;51.050;3.716;2022-12-18T13:43:31;0.30;99.90
13960;DHT22;7052;51.050;3.716;2022-12-18T13:46:04;0.30;99.90
13960;DHT22;7052;51.050;3.716;2022-12-18T13:48:36;0.30;99.90
13960;DHT22;7052;51.050;3.716;2022-12-18T13:51:09;0.30;99.90
13960;DHT22;7052;51.050;3.716;2022-12-18T13:53:44;0.30;99.90
13960;DHT22;7052;51.050;3.716;2022-12-18T13:56:16;0.30;99.90
13960;DHT22;7052;51.050;3.716;2022-12-18T13:58:45;0.30;99.90
13960;DHT22;7052;51.050;3.716;2022-12-18T14:01:22;0.30;99.90
13960;DHT22;7052;51.050;3.716;2022-12-18T14:04:08;0.40;99.90
13960;DHT22;7052;51.050;3.716;2022-12-18T14:06:35;0.40;99.90
13960;DHT22;7052;51.050;3.716;2022-12-18T14:09:04;0.30;99.90
13960;DHT22;7052;51.050;3.716;2022-12-18T14:11:32;0.40;99.90
13960;DHT22;7052;51.050;3.716;2022-12-18T14:14:02;0.30;99.90
13960;DHT22;7052;51.050;3.716;2022-12-18T14:16:34;0.30;99.90
13960;DHT22;7052;51.050;3.716;2022-12-18T14:19:01;0.30;99.90
13960;DHT22;7052;51.050;3.716;2022-12-18T14:21:30;0.30;99.90
13960;DHT22;7052;51.050;3.716;2022-12-18T14:24:06;0.30;99.90
13960;DHT22;7052;51.050;3.716;2022-12-18T14:26:33;0.40;99.90
13960;DHT22;7052;51.050;3.716;2022-12-18T14:29:17;0.40;99.90
13960;DHT22;7052;51.050;3.716;2022-12-18T14:32:04;0.40;99.90
13960;DHT22;7052;51.050;3.716;2022-12-18T14:34:31;0.40;99.90
13960;DHT22;7052;51.050;3.716;2022-12-18T14:36:58;0.40;99.90
13960;DHT22;7052;51.050;3.716;2022-12-18T14:39:27;0.40;99.90
13960;DHT22;7052;51.050;3.716;2022-12-18T14:41:56;0.40;99.90
13960;DHT22;7052;51.050;3.716;2022-12-18T14:44:24;0.50;99.90
13960;DHT22;7052;51.050;3.716;2022-12-18T14:46:57;0.40;99.90
13960;DHT22;7052;51.050;3.716;2022-12-18T14:49:32;0.40;99.90
13960;DHT22;7052;51.050;3.716;2022-12-18T14:52:00;0.50;99.90
13960;DHT22;7052;51.050;3.716;2022-12-18T14:54:32;0.50;99.90
13960;DHT22;7052;51.050;3.716;2022-12-18T14:57:04;0.50;99.90
13960;DHT22;7052;51.050;3.716;2022-12-18T14:59:35;0.50;99.90
13960;DHT22;7052;51.050;3.716;2022-12-18T15:02:08;0.50;99.90
13960;DHT22;7052;51.050;3.716;2022-12-18T15:04:41;0.50;99.90
13960;DHT22;7052;51.050;3.716;2022-12-18T15:07:13;0.50;99.90
13960;DHT22;7052;51.050;3.716;2022-12-18T15:09:42;0.50;99.90
13960;DHT22;7052;51.050;3.716;2022-12-18T15:12:24;0.50;99.90
13960;DHT22;7052;51.050;3.716;2022-12-18T15:14:53;0.50;99.90
13960;DHT22;7052;51.050;3.716;2022-12-18T15:17:22;0.40;99.90
13960;DHT22;7052;51.050;3.716;2022-12-18T15:19:52;0.40;99.90
13960;DHT22;7052;51.050;3.716;2022-12-18T15:22:23;0.40;99.90
13960;DHT22;7052;51.050;3.716;2022-12-18T15:24:51;0.40;99.90
13960;DHT22;7052;51.050;3.716;2022-12-18T15:27:21;0.40;99.90
13960;DHT22;7052;51.050;3.716;2022-12-18T15:30:02;0.40;99.90
13960;DHT22;7052;51.050;3.716;2022-12-18T15:32:29;0.40;99.90
13960;DHT22;7052;51.050;3.716;2022-12-18T15:35:13;0.50;99.90
13960;DHT22;7052;51.050;3.716;2022-12-18T15:37:41;0.50;99.90
13960;DHT22;7052;51.050;3.716;2022-12-18T15:40:11;0.50;99.90
13960;DHT22;7052;51.050;3.716;2022-12-18T15:42:38;0.50;99.90
13960;DHT22;7052;51.050;3.716;2022-12-18T15:45:24;0.50;99.90
13960;DHT22;7052;51.050;3.716;2022-12-18T15:47:52;0.50;99.90
13960;DHT22;7052;51.050;3.716;2022-12-18T15:50:21;0.50;99.90
13960;DHT22;7052;51.050;3.716;2022-12-18T15:52:52;0.50;99.90
13960;DHT22;7052;51.050;3.716;2022-12-18T15:55:26;0.50;99.90
13960;DHT22;7052;51.050;3.716;2022-12-18T15:58:11;0.50;99.90
13960;DHT22;7052;51.050;3.716;2022-12-18T16:00:41;0.50;99.90
13960;DHT22;7052;51.050;3.716;2022-12-18T16:03:08;0.50;99.90
13960;DHT22;7052;51.050;3.716;2022-12-18T16:05:38;0.50;99.90
13960;DHT22;7052;51.050;3.716;2022-12-18T16:08:09;0.50;99.90
13960;DHT22;7052;51.050;3.716;2022-12-18T16:10:37;0.50;99.90
13960;DHT22;7052;51.050;3.716;2022-12-18T16:13:04;0.60;99.90
13960;DHT22;7052;51.050;3.716;2022-12-18T16:15:33;0.60;99.90
13960;DHT22;7052;51.050;3.716;2022-12-18T16:18:02;0.60;99.90
13960;DHT22;7052;51.050;3.716;2022-12-18T16:20:30;0.60;99.90
13960;DHT22;7052;51.050;3.716;2022-12-18T16:23:00;0.60;99.90
13960;DHT22;7052;51.050;3.716;2022-12-18T16:25:28;0.60;99.90
13960;DHT22;7052;51.050;3.716;2022-12-18T16:28:00;0.70;99.90